createdAt,value
2018-05-10T00:00:30.014Z,10.23
2018-05-10T00:03:00.827Z,7.10
2018-05-10T00:05:31.635Z,5.93
2018-05-10T00:08:02.447Z,8.63
2018-05-10T00:10:33.258Z,6.77
2018-05-10T00:13:04.072Z,6.60
2018-05-10T00:15:34.859Z,7.93
2018-05-10T00:18:05.741Z,8.03
2018-05-10T00:20:36.525Z,7.80
2018-05-10T00:23:07.340Z,8.13
2018-05-10T00:25:38.111Z,7.30
2018-05-10T00:28:08.955Z,7.97
2018-05-10T00:30:39.763Z,7.40
2018-05-10T00:33:10.560Z,7.27
2018-05-10T00:35:41.382Z,8.53
2018-05-10T00:38:12.200Z,6.53
2018-05-10T00:40:42.985Z,7.00
2018-05-10T00:43:13.783Z,6.73
2018-05-10T00:45:44.579Z,7.13
2018-05-10T00:48:15.368Z,9.03
2018-05-10T00:50:46.162Z,7.37
2018-05-10T00:53:16.952Z,7.60
2018-05-10T00:55:47.730Z,6.77
2018-05-10T00:58:18.576Z,7.33
2018-05-10T01:00:49.376Z,7.30
2018-05-10T01:03:20.192Z,7.60
2018-05-10T01:05:50.989Z,7.97
2018-05-10T01:08:21.788Z,7.47
2018-05-10T01:10:52.587Z,8.50
2018-05-10T01:13:23.399Z,9.17
2018-05-10T01:15:54.187Z,7.53
2018-05-10T01:18:25.004Z,8.63
2018-05-10T01:20:55.763Z,7.90
2018-05-10T01:23:26.577Z,7.13
2018-05-10T01:25:57.349Z,7.97
2018-05-10T01:28:28.165Z,7.87
2018-05-10T01:30:58.947Z,8.23
2018-05-10T01:33:29.768Z,7.83
2018-05-10T01:36:11.652Z,8.40
2018-05-10T01:38:42.439Z,7.93
2018-05-10T01:41:13.213Z,7.07
2018-05-10T01:43:44.016Z,7.97
2018-05-10T01:46:14.796Z,8.47
2018-05-10T01:48:45.583Z,7.90
2018-05-10T01:51:16.356Z,7.77
2018-05-10T01:53:47.140Z,10.17
2018-05-10T01:56:17.955Z,8.00
2018-05-10T01:58:48.748Z,8.90
2018-05-10T02:01:19.531Z,8.40
2018-05-10T02:03:50.349Z,8.43
2018-05-10T02:06:21.148Z,7.63
2018-05-10T02:08:51.944Z,7.60
2018-05-10T02:11:22.721Z,10.17
2018-05-10T02:13:53.517Z,7.43
2018-05-10T02:16:24.304Z,7.10
2018-05-10T02:18:55.242Z,6.87
2018-05-10T02:21:26.036Z,7.47
2018-05-10T02:23:56.837Z,8.97
2018-05-10T02:26:27.633Z,6.77
2018-05-10T02:28:58.432Z,5.97
2018-05-10T02:31:29.205Z,6.97
2018-05-10T02:33:59.995Z,8.23
2018-05-10T02:36:30.910Z,7.20
2018-05-10T02:39:01.644Z,7.50
2018-05-10T02:41:32.411Z,7.60
2018-05-10T02:44:03.267Z,7.80
2018-05-10T02:46:34.076Z,6.60
2018-05-10T02:49:04.907Z,7.30
2018-05-10T02:51:35.673Z,7.10
2018-05-10T02:54:06.454Z,6.37
2018-05-10T02:56:37.239Z,7.10
2018-05-10T02:59:09.163Z,7.53
2018-05-10T03:01:39.968Z,6.90
2018-05-10T03:04:11.941Z,7.13
2018-05-10T03:06:42.719Z,6.97
2018-05-10T03:09:13.508Z,6.93
2018-05-10T03:11:44.300Z,7.57
2018-05-10T03:14:15.095Z,7.47
2018-05-10T03:16:45.883Z,7.60
2018-05-10T03:19:16.677Z,7.77
2018-05-10T03:21:47.466Z,7.77
2018-05-10T03:24:18.248Z,6.83
2018-05-10T03:26:49.038Z,7.43
2018-05-10T03:29:19.842Z,7.77
2018-05-10T03:31:50.631Z,7.23
2018-05-10T03:34:21.431Z,8.10
2018-05-10T03:36:52.225Z,9.60
2018-05-10T03:39:23.024Z,8.00
2018-05-10T03:41:53.784Z,7.40
2018-05-10T03:44:24.612Z,6.40
2018-05-10T03:46:55.376Z,7.00
2018-05-10T03:49:26.216Z,6.77
2018-05-10T03:51:57.034Z,7.10
2018-05-10T03:54:27.821Z,7.23
2018-05-10T03:56:58.599Z,6.73
2018-05-10T03:59:29.368Z,8.03
2018-05-10T04:02:00.149Z,7.37
2018-05-10T04:04:43.075Z,8.27
2018-05-10T04:07:26.257Z,7.28
2018-05-10T04:10:09.428Z,6.78
2018-05-10T04:12:40.226Z,6.80
2018-05-10T04:15:11.008Z,7.90
2018-05-10T04:17:41.793Z,7.93
2018-05-10T04:20:12.593Z,6.60
2018-05-10T04:22:43.344Z,7.43
2018-05-10T04:25:14.135Z,8.00
2018-05-10T04:27:44.909Z,7.60
2018-05-10T04:30:16.509Z,6.90
2018-05-10T04:32:47.295Z,6.32
2018-05-10T04:35:18.113Z,7.30
2018-05-10T04:37:48.916Z,6.80
2018-05-10T04:40:19.750Z,8.20
2018-05-10T04:42:50.512Z,7.80
2018-05-10T04:45:21.296Z,8.13
2018-05-10T04:47:52.085Z,8.37
2018-05-10T04:50:22.873Z,8.50
2018-05-10T04:52:53.659Z,8.00
2018-05-10T04:55:24.460Z,7.83
2018-05-10T04:58:01.343Z,8.57
2018-05-10T05:00:32.277Z,7.30
2018-05-10T05:03:03.148Z,7.63
2018-05-10T05:05:33.959Z,8.03
2018-05-10T05:08:04.719Z,7.17
2018-05-10T05:10:35.517Z,6.37
2018-05-10T05:13:06.283Z,7.77
2018-05-10T05:15:37.252Z,7.30
2018-05-10T05:18:08.025Z,7.43
2018-05-10T05:20:38.848Z,7.60
2018-05-10T05:23:09.611Z,8.37
2018-05-10T05:25:40.416Z,7.97
2018-05-10T05:28:11.198Z,7.00
2018-05-10T05:30:42.000Z,6.93
2018-05-10T05:33:12.796Z,7.20
2018-05-10T05:35:43.599Z,8.07
2018-05-10T05:38:14.377Z,8.60
2018-05-10T05:40:45.213Z,7.93
2018-05-10T05:43:16.082Z,8.67
2018-05-10T05:45:46.810Z,7.80
2018-05-10T05:48:17.576Z,8.27
2018-05-10T05:50:48.369Z,8.90
2018-05-10T05:53:19.141Z,7.43
2018-05-10T05:55:49.941Z,7.60
2018-05-10T05:58:20.726Z,7.97
2018-05-10T06:00:51.518Z,7.53
2018-05-10T06:03:22.299Z,7.90
2018-05-10T06:05:53.106Z,7.97
2018-05-10T06:08:23.907Z,7.23
2018-05-10T06:10:54.705Z,8.30
2018-05-10T06:13:25.494Z,7.10
2018-05-10T06:15:56.450Z,7.97
2018-05-10T06:18:27.232Z,8.10
2018-05-10T06:20:58.028Z,7.70
2018-05-10T06:23:29.485Z,8.87
2018-05-10T06:26:00.312Z,8.00
2018-05-10T06:28:31.108Z,7.73
2018-05-10T06:31:01.908Z,8.20
2018-05-10T06:33:32.779Z,9.60
2018-05-10T06:36:03.701Z,9.50
2018-05-10T06:38:34.505Z,8.70
2018-05-10T06:41:05.339Z,9.17
2018-05-10T06:43:36.190Z,8.27
2018-05-10T06:46:07.035Z,8.43
2018-05-10T06:48:37.835Z,8.90
2018-05-10T06:51:08.667Z,8.87
2018-05-10T06:53:39.461Z,9.00
2018-05-10T06:56:10.243Z,8.30
2018-05-10T06:58:41.012Z,8.97
2018-05-10T07:01:11.829Z,8.37
2018-05-10T07:03:42.653Z,9.40
2018-05-10T07:06:13.572Z,9.23
2018-05-10T07:08:44.381Z,7.37
2018-05-10T07:11:15.199Z,8.60
2018-05-10T07:13:46.021Z,9.40
2018-05-10T07:16:16.900Z,8.93
2018-05-10T07:18:47.712Z,8.07
2018-05-10T07:21:18.684Z,7.97
2018-05-10T07:23:49.472Z,8.73
2018-05-10T07:26:20.319Z,9.20
2018-05-10T07:28:51.127Z,8.00
2018-05-10T07:31:21.941Z,8.23
2018-05-10T07:33:53.161Z,7.93
2018-05-10T07:36:23.968Z,7.73
2018-05-10T07:38:54.739Z,8.07
2018-05-10T07:41:25.537Z,8.43
2018-05-10T07:43:56.360Z,8.37
2018-05-10T07:46:27.865Z,7.60
2018-05-10T07:48:58.855Z,7.40
2018-05-10T07:51:29.661Z,8.10
2018-05-10T07:54:00.431Z,7.27
2018-05-10T07:56:31.218Z,6.90
2018-05-10T07:59:02.004Z,6.97
2018-05-10T08:01:32.811Z,6.50
2018-05-10T08:04:03.621Z,7.27
2018-05-10T08:06:34.472Z,7.70
2018-05-10T08:09:05.296Z,7.30
2018-05-10T08:11:36.110Z,6.97
2018-05-10T08:14:06.955Z,7.50
2018-05-10T08:16:37.816Z,7.23
2018-05-10T08:19:08.624Z,6.63
2018-05-10T08:21:40.597Z,6.20
2018-05-10T08:24:11.536Z,5.97
2018-05-10T08:26:42.365Z,6.20
2018-05-10T08:29:13.147Z,7.60
2018-05-10T08:31:43.950Z,6.90
2018-05-10T08:34:14.751Z,7.10
2018-05-10T08:36:45.575Z,7.93
2018-05-10T08:39:16.365Z,6.57
2018-05-10T08:41:47.266Z,7.00
2018-05-10T08:44:18.139Z,6.80
2018-05-10T08:46:48.944Z,7.63
2018-05-10T08:49:19.719Z,7.77
2018-05-10T08:51:51.192Z,8.33
2018-05-10T08:54:21.963Z,6.70
2018-05-10T08:56:52.796Z,6.53
2018-05-10T08:59:23.587Z,6.77
2018-05-10T09:01:54.392Z,7.43
2018-05-10T09:04:25.185Z,7.77
2018-05-10T09:06:55.976Z,7.10
2018-05-10T09:09:26.773Z,7.17
2018-05-10T09:11:57.609Z,7.00
2018-05-10T09:14:28.367Z,7.00
2018-05-10T09:16:59.159Z,6.33
2018-05-10T09:19:29.957Z,7.30
2018-05-10T09:22:00.763Z,6.90
2018-05-10T09:24:31.569Z,6.50
2018-05-10T09:27:02.394Z,5.70
2018-05-10T09:29:33.180Z,6.83
2018-05-10T09:32:03.969Z,7.60
2018-05-10T09:34:34.749Z,7.00
2018-05-10T09:37:05.552Z,6.20
2018-05-10T09:39:36.430Z,6.60
2018-05-10T09:42:07.141Z,5.87
2018-05-10T09:44:37.912Z,6.07
2018-05-10T09:47:08.781Z,6.73
2018-05-10T09:49:39.577Z,6.03
2018-05-10T09:52:10.383Z,6.60
2018-05-10T09:54:41.236Z,7.63
2018-05-10T09:57:12.558Z,5.77
2018-05-10T09:59:43.331Z,5.67
2018-05-10T10:02:14.173Z,6.00
2018-05-10T10:04:45.940Z,5.93
2018-05-10T10:07:16.804Z,6.77
2018-05-10T10:09:47.587Z,6.13
2018-05-10T10:12:18.371Z,5.60
2018-05-10T10:14:49.146Z,6.07
2018-05-10T10:17:19.940Z,6.27
2018-05-10T10:19:50.713Z,5.60
2018-05-10T10:22:21.544Z,6.50
2018-05-10T10:24:52.319Z,6.00
2018-05-10T10:27:23.160Z,5.27
2018-05-10T10:29:53.888Z,6.90
2018-05-10T10:32:31.585Z,4.40
2018-05-10T10:35:02.372Z,3.70
2018-05-10T10:37:33.148Z,4.30
2018-05-10T10:40:03.938Z,4.27
2018-05-10T10:42:34.789Z,5.07
2018-05-10T10:45:05.684Z,6.23
2018-05-10T10:47:37.530Z,4.67
2018-05-10T10:50:08.339Z,4.73
2018-05-10T10:52:40.227Z,5.37
2018-05-10T10:55:11.040Z,4.07
2018-05-10T10:57:41.884Z,4.40
2018-05-10T11:00:12.651Z,4.53
2018-05-10T11:08:37.040Z,4.20
2018-05-10T11:11:08.900Z,6.13
2018-05-10T11:13:39.696Z,4.63
2018-05-10T11:16:10.481Z,6.43
2018-05-10T11:18:41.303Z,4.97
2018-05-10T11:21:12.100Z,5.37
2018-05-10T11:23:42.876Z,5.70
2018-05-10T11:26:13.677Z,5.17
2018-05-10T11:28:44.456Z,5.40
2018-05-10T11:31:15.329Z,4.40
2018-05-10T11:33:46.117Z,5.63
2018-05-10T11:36:17.014Z,5.60
2018-05-10T11:38:47.705Z,6.37
2018-05-10T11:41:18.484Z,5.03
2018-05-10T11:43:49.256Z,5.27
2018-05-10T11:46:20.035Z,5.67
2018-05-10T11:48:50.832Z,5.40
2018-05-10T11:51:21.601Z,8.13
2018-05-10T11:53:52.426Z,5.10
2018-05-10T11:56:23.185Z,4.93
2018-05-10T11:58:54.043Z,5.27
2018-05-10T12:01:24.818Z,4.73
2018-05-10T12:03:55.727Z,4.87
2018-05-10T12:06:26.547Z,4.67
2018-05-10T12:08:57.384Z,4.40
2018-05-10T12:11:28.201Z,4.07
2018-05-10T12:13:59.008Z,3.77
2018-05-10T12:16:29.979Z,5.83
2018-05-10T12:19:01.645Z,4.47
2018-05-10T12:21:32.432Z,3.93
2018-05-10T12:24:03.242Z,5.17
2018-05-10T12:26:34.157Z,3.80
2018-05-10T12:29:05.019Z,4.13
2018-05-10T12:31:36.271Z,4.57
2018-05-10T12:34:07.112Z,4.40
2018-05-10T12:36:37.879Z,4.50
2018-05-10T12:39:08.678Z,4.40
2018-05-10T12:41:39.556Z,4.10
2018-05-10T12:44:10.268Z,3.87
2018-05-10T12:46:41.052Z,4.00
2018-05-10T12:49:11.929Z,4.00
2018-05-10T12:51:42.726Z,4.50
2018-05-10T12:54:13.544Z,4.37
2018-05-10T12:56:44.327Z,4.03
2018-05-10T12:59:15.172Z,4.00
2018-05-10T13:01:45.953Z,3.50
2018-05-10T13:04:16.804Z,4.50
2018-05-10T13:06:47.667Z,4.23
2018-05-10T13:09:18.420Z,5.93
2018-05-10T13:11:49.355Z,4.53
2018-05-10T13:14:20.172Z,4.13
2018-05-10T13:16:51.004Z,4.87
2018-05-10T13:19:22.001Z,4.87
2018-05-10T13:21:52.748Z,5.20
2018-05-10T13:24:23.799Z,4.67
2018-05-10T13:26:54.788Z,5.47
2018-05-10T13:29:26.604Z,4.83
2018-05-10T13:31:57.427Z,4.30
2018-05-10T13:34:28.225Z,4.40
2018-05-10T13:36:59.019Z,4.70
2018-05-10T13:39:29.796Z,5.00
2018-05-10T13:42:00.599Z,4.50
2018-05-10T13:44:31.396Z,6.40
2018-05-10T13:47:02.250Z,3.77
2018-05-10T13:49:33.016Z,4.50
2018-05-10T13:52:03.900Z,4.23
2018-05-10T13:54:34.695Z,4.23
2018-05-10T13:57:05.471Z,4.23
2018-05-10T13:59:36.277Z,3.17
2018-05-10T14:02:07.144Z,3.77
2018-05-10T14:04:37.950Z,5.87
2018-05-10T14:07:08.922Z,10.97
2018-05-10T14:09:42.163Z,4.80
2018-05-10T14:12:13.289Z,4.10
2018-05-10T14:14:44.122Z,3.43
2018-05-10T14:17:14.895Z,3.10
2018-05-10T14:19:45.728Z,2.90
2018-05-10T14:22:17.532Z,2.80
2018-05-10T14:24:48.316Z,2.33
2018-05-10T14:27:19.088Z,2.63
2018-05-10T14:29:49.890Z,3.73
2018-05-10T14:32:20.816Z,2.93
2018-05-10T14:34:51.634Z,2.90
2018-05-10T14:37:22.459Z,2.17
2018-05-10T14:39:53.272Z,2.87
2018-05-10T14:42:24.088Z,2.23
2018-05-10T14:44:54.968Z,1.70
2018-05-10T14:47:25.846Z,1.67
2018-05-10T14:49:56.700Z,1.33
2018-05-10T14:52:27.530Z,2.13
2018-05-10T14:54:58.325Z,1.97
2018-05-10T14:57:29.115Z,1.70
2018-05-10T14:59:59.925Z,2.40
2018-05-10T15:02:30.689Z,2.43
2018-05-10T15:05:01.517Z,2.50
2018-05-10T15:07:32.311Z,3.00
2018-05-10T15:10:03.116Z,4.27
2018-05-10T15:12:33.904Z,2.40
2018-05-10T15:15:04.725Z,2.63
2018-05-10T15:17:35.598Z,3.00
2018-05-10T15:20:06.464Z,2.93
2018-05-10T15:22:37.278Z,2.53
2018-05-10T15:25:08.044Z,2.60
2018-05-10T15:27:39.862Z,2.50
2018-05-10T15:30:10.668Z,2.30
2018-05-10T15:32:41.440Z,2.60
2018-05-10T15:35:12.277Z,2.67
2018-05-10T15:37:43.120Z,2.57
2018-05-10T15:40:13.956Z,5.03
2018-05-10T15:42:44.744Z,2.90
2018-05-10T15:45:15.557Z,2.80
2018-05-10T15:47:46.362Z,2.90
2018-05-10T15:50:17.197Z,2.37
2018-05-10T15:52:47.986Z,2.30
2018-05-10T15:55:18.830Z,2.30
2018-05-10T15:57:49.625Z,2.90
2018-05-10T16:00:20.433Z,2.50
2018-05-10T16:02:51.329Z,2.63
2018-05-10T16:05:22.117Z,2.60
2018-05-10T16:07:52.945Z,2.53
2018-05-10T16:10:23.760Z,2.70
2018-05-10T16:12:54.604Z,2.90
2018-05-10T16:15:25.412Z,2.40
2018-05-10T16:17:56.207Z,2.70
2018-05-10T16:20:27.016Z,2.93
2018-05-10T16:22:57.840Z,3.27
2018-05-10T16:25:28.612Z,3.90
2018-05-10T16:27:59.394Z,2.83
2018-05-10T16:30:30.173Z,2.63
2018-05-10T16:33:00.979Z,2.83
2018-05-10T16:35:31.796Z,3.07
2018-05-10T16:38:02.599Z,2.93
2018-05-10T16:40:33.493Z,3.23
2018-05-10T16:43:04.341Z,3.20
2018-05-10T16:45:35.178Z,4.00
2018-05-10T16:48:05.954Z,3.00
2018-05-10T16:50:36.750Z,3.43
2018-05-10T16:53:07.529Z,3.53
2018-05-10T16:55:38.396Z,4.73
2018-05-10T16:58:09.201Z,4.00
2018-05-10T17:00:40.020Z,3.37
2018-05-10T17:03:10.787Z,3.43
2018-05-10T17:05:41.619Z,3.13
2018-05-10T17:08:12.423Z,3.97
2018-05-10T17:10:43.218Z,2.80
2018-05-10T17:13:14.119Z,4.50
2018-05-10T17:15:44.923Z,4.97
2018-05-10T17:18:15.753Z,3.50
2018-05-10T17:20:46.708Z,3.03
2018-05-10T17:23:17.544Z,3.57
2018-05-10T17:25:48.352Z,3.80
2018-05-10T17:28:19.141Z,4.50
2018-05-10T17:30:50.013Z,3.20
2018-05-10T17:33:20.742Z,3.33
2018-05-10T17:35:51.604Z,3.23
2018-05-10T17:38:22.368Z,3.30
2018-05-10T17:40:53.269Z,3.53
2018-05-10T17:43:24.061Z,3.70
2018-05-10T17:45:55.028Z,3.73
2018-05-10T17:48:25.854Z,3.77
2018-05-10T17:50:56.727Z,3.20
2018-05-10T17:53:28.585Z,4.40
2018-05-10T17:55:59.528Z,3.00
2018-05-10T17:58:30.374Z,2.87
2018-05-10T18:01:01.600Z,3.80
2018-05-10T18:03:32.500Z,3.47
2018-05-10T18:06:03.410Z,3.53
2018-05-10T18:08:34.113Z,3.47
2018-05-10T18:11:04.948Z,3.47
2018-05-10T18:13:35.806Z,3.83
2018-05-10T18:16:06.583Z,3.73
2018-05-10T18:18:37.369Z,3.43
2018-05-10T18:21:08.192Z,3.70
2018-05-10T18:23:39.057Z,3.80
2018-05-10T18:26:09.842Z,6.27
2018-05-10T18:28:40.621Z,4.53
2018-05-10T18:31:11.416Z,3.90
2018-05-10T18:33:42.265Z,4.03
2018-05-10T18:36:13.079Z,4.17
2018-05-10T18:38:43.868Z,4.67
2018-05-10T18:41:14.700Z,4.53
2018-05-10T18:43:45.573Z,4.37
2018-05-10T18:46:17.448Z,4.57
2018-05-10T18:48:48.204Z,4.23
2018-05-10T18:51:19.102Z,4.37
2018-05-10T18:53:49.903Z,4.23
2018-05-10T18:56:20.720Z,3.70
2018-05-10T18:58:51.555Z,4.10
2018-05-10T19:01:22.422Z,4.20
2018-05-10T19:03:53.315Z,4.17
2018-05-10T19:06:24.328Z,4.57
2018-05-10T19:08:55.171Z,5.03
2018-05-10T19:11:26.007Z,5.20
2018-05-10T19:13:56.820Z,6.03
2018-05-10T19:16:27.593Z,5.37
2018-05-10T19:18:58.469Z,5.53
2018-05-10T19:21:29.301Z,7.03
2018-05-10T19:24:00.147Z,5.57
2018-05-10T19:26:31.030Z,5.67
2018-05-10T19:29:01.783Z,5.53
2018-05-10T19:31:32.589Z,6.00
2018-05-10T19:34:03.379Z,5.37
2018-05-10T19:36:34.194Z,6.70
2018-05-10T19:39:05.004Z,6.10
2018-05-10T19:41:35.826Z,7.20
2018-05-10T19:44:06.600Z,7.73
2018-05-10T19:46:37.412Z,7.40
2018-05-10T19:49:08.218Z,8.30
2018-05-10T19:54:36.223Z,8.40
2018-05-10T19:57:07.030Z,9.13
2018-05-10T19:59:37.828Z,11.33
2018-05-10T20:02:08.640Z,10.00
2018-05-10T20:04:39.532Z,10.40
2018-05-10T20:07:10.425Z,10.07
2018-05-10T20:09:41.251Z,9.80
2018-05-10T20:12:12.078Z,12.07
2018-05-10T20:14:42.888Z,11.97
2018-05-10T20:17:13.732Z,12.10
2018-05-10T20:19:45.999Z,12.57
2018-05-10T20:22:16.902Z,11.37
2018-05-10T20:24:47.683Z,11.40
2018-05-10T20:27:18.502Z,11.27
2018-05-10T20:29:49.372Z,12.23
2018-05-10T20:32:20.286Z,13.43
2018-05-10T20:34:51.121Z,11.90
2018-05-10T20:37:22.255Z,14.30
2018-05-10T20:39:53.027Z,12.80
2018-05-10T20:42:23.802Z,13.17
2018-05-10T20:44:55.001Z,14.13
2018-05-10T20:47:25.907Z,13.77
2018-05-10T20:49:56.656Z,13.53
2018-05-10T20:52:27.457Z,13.27
2018-05-10T20:54:58.764Z,15.33
2018-05-10T20:57:29.559Z,15.57
2018-05-10T21:00:00.323Z,15.87
2018-05-10T21:02:31.091Z,15.97
2018-05-10T21:05:01.920Z,16.87
2018-05-10T21:07:32.694Z,15.53
2018-05-10T21:10:03.614Z,17.10
2018-05-10T21:12:41.521Z,18.67
2018-05-10T21:15:12.319Z,16.43
2018-05-10T21:17:43.120Z,17.27
2018-05-10T21:20:13.884Z,17.90
2018-05-10T21:22:44.670Z,17.27
2018-05-10T21:25:15.445Z,16.40
2018-05-10T21:27:46.233Z,18.57
2018-05-10T21:30:16.982Z,20.90
2018-05-10T21:32:47.774Z,20.33
2018-05-10T21:35:18.552Z,20.57
2018-05-10T21:37:49.320Z,22.80
2018-05-10T21:40:20.068Z,21.63
2018-05-10T21:42:50.942Z,27.10
2018-05-10T21:45:21.680Z,24.93
2018-05-10T21:47:52.459Z,25.40
2018-05-10T21:50:26.215Z,25.37
2018-05-10T21:52:57.001Z,24.60
2018-05-10T21:55:27.804Z,24.17
2018-05-10T21:57:58.571Z,25.40
2018-05-10T22:00:29.371Z,24.40
2018-05-10T22:03:00.139Z,24.00
2018-05-10T22:05:37.948Z,23.47
2018-05-10T22:08:08.727Z,23.40
2018-05-10T22:10:39.488Z,21.00
2018-05-10T22:13:10.270Z,22.53
2018-05-10T22:15:41.053Z,24.57
2018-05-10T22:18:11.818Z,22.40
2018-05-10T22:20:42.579Z,24.23
2018-05-10T22:23:13.383Z,24.93
2018-05-10T22:25:44.124Z,24.87
2018-05-10T22:28:14.919Z,24.00
2018-05-10T22:30:45.686Z,27.50
2018-05-10T22:33:16.472Z,25.67
2018-05-10T22:35:47.256Z,24.63
2018-05-10T22:38:18.047Z,22.67
2018-05-10T22:40:48.805Z,25.40
2018-05-10T22:43:19.581Z,23.80
2018-05-10T22:45:50.353Z,22.37
2018-05-10T22:48:21.129Z,23.67
2018-05-10T22:50:51.877Z,26.10
2018-05-10T22:53:22.672Z,25.50
2018-05-10T22:55:53.560Z,23.57
2018-05-10T22:58:24.283Z,23.50
2018-05-10T23:00:55.034Z,27.80
2018-05-10T23:03:25.821Z,25.50
2018-05-10T23:05:56.575Z,23.20
2018-05-10T23:08:27.364Z,26.00
2018-05-10T23:10:58.113Z,23.37
2018-05-10T23:13:28.974Z,23.60
2018-05-10T23:15:59.746Z,24.07
2018-05-10T23:18:30.525Z,22.17
2018-05-10T23:21:01.273Z,22.50
2018-05-10T23:23:32.040Z,23.47
2018-05-10T23:26:02.824Z,22.63
2018-05-10T23:28:33.595Z,22.33
2018-05-10T23:31:04.327Z,21.30
2018-05-10T23:33:35.088Z,22.57
2018-05-10T23:36:05.847Z,20.70
2018-05-10T23:38:36.626Z,20.67
2018-05-10T23:41:07.369Z,19.83
2018-05-10T23:43:38.164Z,22.33
2018-05-10T23:46:08.931Z,20.70
2018-05-10T23:48:39.722Z,21.20
2018-05-10T23:51:10.467Z,20.07
2018-05-10T23:53:41.239Z,18.80
2018-05-10T23:56:11.997Z,18.97
2018-05-10T23:58:42.800Z,17.60
